Arendtsville, Pennsylvania
Current Conditions -  °F | °C
As of 5:53 PM on Wednesday 22 Oct 2014 (Local Time) from KRYT Reporting Station
Overcast Overcast  
Wind Chill: 54°   Ceiling: 3200
Heat Index: 54°   Visibility: 10mi
Dew Point: 44°   Wind: 6mph
Humidity: 69%   Direction: 360°N
Pressure: 29.95"   Gusts: 17mph
Location:  39.92°N, 77.3°W
Report Text: KRYT 222153Z AUTO 36005G15KT 10SM BKN032 BKN065 OVC110 12/07 A2995 RMK AO2 SLP143 T01220067 $
Loading
Personal Weather Stations






























Interactive Weather Map
Tropical Storm Tracking
New forecast layout! Learn more

10-Day Weather Forecast

Advertisements
Track Severe Weather on mobile